sensor_id;sensor_type;location;lat;lon;timestamp;temperature;humidity
77727;SHT30;68312;53.502;10.030;2023-07-24T00:00:48;17.76;88.10
77727;SHT30;68312;53.502;10.030;2023-07-24T00:03:13;17.75;88.31
77727;SHT30;68312;53.502;10.030;2023-07-24T00:05:39;17.70;88.46
77727;SHT30;68312;53.502;10.030;2023-07-24T00:08:04;17.75;88.45
77727;SHT30;68312;53.502;10.030;2023-07-24T00:10:30;17.80;88.22
77727;SHT30;68312;53.502;10.030;2023-07-24T00:12:55;17.87;88.09
77727;SHT30;68312;53.502;10.030;2023-07-24T00:15:21;17.89;87.89
77727;SHT30;68312;53.502;10.030;2023-07-24T00:17:46;17.90;87.88
77727;SHT30;68312;53.502;10.030;2023-07-24T00:20:11;17.84;88.23
77727;SHT30;68312;53.502;10.030;2023-07-24T00:22:37;17.79;88.37
77727;SHT30;68312;53.502;10.030;2023-07-24T00:25:02;17.76;88.51
77727;SHT30;68312;53.502;10.030;2023-07-24T00:27:28;17.77;88.72
77727;SHT30;68312;53.502;10.030;2023-07-24T00:29:53;17.80;88.54
77727;SHT30;68312;53.502;10.030;2023-07-24T00:32:18;17.80;88.46
77727;SHT30;68312;53.502;10.030;2023-07-24T00:34:44;17.83;88.55
77727;SHT30;68312;53.502;10.030;2023-07-24T00:37:09;17.77;88.71
77727;SHT30;68312;53.502;10.030;2023-07-24T00:39:34;17.82;88.67
77727;SHT30;68312;53.502;10.030;2023-07-24T00:42:02;17.76;88.76
77727;SHT30;68312;53.502;10.030;2023-07-24T00:44:27;17.80;88.90
77727;SHT30;68312;53.502;10.030;2023-07-24T00:46:53;17.73;88.98
77727;SHT30;68312;53.502;10.030;2023-07-24T00:49:19;17.70;89.22
77727;SHT30;68312;53.502;10.030;2023-07-24T00:51:46;17.72;89.25
77727;SHT30;68312;53.502;10.030;2023-07-24T00:54:16;17.69;89.27
77727;SHT30;68312;53.502;10.030;2023-07-24T00:56:45;17.63;89.50
77727;SHT30;68312;53.502;10.030;2023-07-24T00:59:10;17.56;89.82
77727;SHT30;68312;53.502;10.030;2023-07-24T01:01:39;17.50;90.02
77727;SHT30;68312;53.502;10.030;2023-07-24T01:04:05;17.46;90.31
77727;SHT30;68312;53.502;10.030;2023-07-24T01:06:32;17.40;90.45
77727;SHT30;68312;53.502;10.030;2023-07-24T01:08:57;17.35;90.69
77727;SHT30;68312;53.502;10.030;2023-07-24T01:11:46;17.28;91.02
77727;SHT30;68312;53.502;10.030;2023-07-24T01:17:00;17.36;91.39
77727;SHT30;68312;53.502;10.030;2023-07-24T01:19:47;17.31;91.27
77727;SHT30;68312;53.502;10.030;2023-07-24T01:27:29;17.40;91.40
77727;SHT30;68312;53.502;10.030;2023-07-24T01:29:55;17.42;91.34
77727;SHT30;68312;53.502;10.030;2023-07-24T01:32:20;17.49;91.17
77727;SHT30;68312;53.502;10.030;2023-07-24T01:34:47;17.53;91.10
77727;SHT30;68312;53.502;10.030;2023-07-24T01:37:13;17.57;90.86
77727;SHT30;68312;53.502;10.030;2023-07-24T01:39:40;17.61;90.68
77727;SHT30;68312;53.502;10.030;2023-07-24T01:42:07;17.65;90.72
77727;SHT30;68312;53.502;10.030;2023-07-24T01:44:33;17.66;90.59
77727;SHT30;68312;53.502;10.030;2023-07-24T01:46:58;17.75;90.39
77727;SHT30;68312;53.502;10.030;2023-07-24T01:49:23;17.77;90.33
77727;SHT30;68312;53.502;10.030;2023-07-24T01:51:49;17.77;90.19
77727;SHT30;68312;53.502;10.030;2023-07-24T01:54:14;17.76;90.25
77727;SHT30;68312;53.502;10.030;2023-07-24T01:56:39;17.72;90.40
77727;SHT30;68312;53.502;10.030;2023-07-24T01:59:05;17.69;90.56
77727;SHT30;68312;53.502;10.030;2023-07-24T02:01:31;17.73;90.60
77727;SHT30;68312;53.502;10.030;2023-07-24T02:03:57;17.83;90.07
77727;SHT30;68312;53.502;10.030;2023-07-24T02:06:22;17.86;89.99
77727;SHT30;68312;53.502;10.030;2023-07-24T02:08:47;17.90;89.80
77727;SHT30;68312;53.502;10.030;2023-07-24T02:11:17;17.96;89.57
77727;SHT30;68312;53.502;10.030;2023-07-24T02:13:46;17.98;89.61
77727;SHT30;68312;53.502;10.030;2023-07-24T02:16:13;17.98;89.48
77727;SHT30;68312;53.502;10.030;2023-07-24T02:18:41;18.03;89.15
77727;SHT30;68312;53.502;10.030;2023-07-24T02:21:07;18.05;88.95
77727;SHT30;68312;53.502;10.030;2023-07-24T02:23:32;18.07;88.91
77727;SHT30;68312;53.502;10.030;2023-07-24T02:25:58;18.17;88.17
77727;SHT30;68312;53.502;10.030;2023-07-24T02:28:23;18.21;87.75
77727;SHT30;68312;53.502;10.030;2023-07-24T02:30:49;18.18;87.78
77727;SHT30;68312;53.502;10.030;2023-07-24T02:33:14;18.21;87.53
77727;SHT30;68312;53.502;10.030;2023-07-24T02:35:43;18.24;87.55
77727;SHT30;68312;53.502;10.030;2023-07-24T02:38:09;18.15;87.92
77727;SHT30;68312;53.502;10.030;2023-07-24T02:40:35;18.21;87.54
77727;SHT30;68312;53.502;10.030;2023-07-24T02:43:01;18.15;87.92
77727;SHT30;68312;53.502;10.030;2023-07-24T02:45:26;18.14;87.89
77727;SHT30;68312;53.502;10.030;2023-07-24T02:47:52;18.10;88.13
77727;SHT30;68312;53.502;10.030;2023-07-24T02:50:17;18.04;88.25
77727;SHT30;68312;53.502;10.030;2023-07-24T02:52:43;18.04;87.89
77727;SHT30;68312;53.502;10.030;2023-07-24T02:55:08;17.98;88.10
77727;SHT30;68312;53.502;10.030;2023-07-24T02:57:33;18.07;87.80
77727;SHT30;68312;53.502;10.030;2023-07-24T02:59:59;18.01;87.95
77727;SHT30;68312;53.502;10.030;2023-07-24T03:02:24;18.03;87.86
77727;SHT30;68312;53.502;10.030;2023-07-24T03:04:50;18.07;87.68
77727;SHT30;68312;53.502;10.030;2023-07-24T03:07:15;17.98;87.97
77727;SHT30;68312;53.502;10.030;2023-07-24T03:09:40;17.90;88.35
77727;SHT30;68312;53.502;10.030;2023-07-24T03:12:06;17.76;88.75
77727;SHT30;68312;53.502;10.030;2023-07-24T03:14:31;17.70;89.25
77727;SHT30;68312;53.502;10.030;2023-07-24T03:16:57;17.65;89.35
77727;SHT30;68312;53.502;10.030;2023-07-24T03:19:22;17.61;89.58
77727;SHT30;68312;53.502;10.030;2023-07-24T03:21:48;17.61;89.58
77727;SHT30;68312;53.502;10.030;2023-07-24T03:24:13;17.57;89.76
77727;SHT30;68312;53.502;10.030;2023-07-24T03:26:38;17.52;89.92
77727;SHT30;68312;53.502;10.030;2023-07-24T03:29:05;17.46;90.09
77727;SHT30;68312;53.502;10.030;2023-07-24T03:31:30;17.47;90.16
77727;SHT30;68312;53.502;10.030;2023-07-24T03:33:55;17.42;90.18
77727;SHT30;68312;53.502;10.030;2023-07-24T03:36:21;17.36;90.42
77727;SHT30;68312;53.502;10.030;2023-07-24T03:38:46;17.39;90.43
77727;SHT30;68312;53.502;10.030;2023-07-24T03:41:12;17.34;90.36
77727;SHT30;68312;53.502;10.030;2023-07-24T03:43:37;17.34;90.64
77727;SHT30;68312;53.502;10.030;2023-07-24T03:46:03;17.38;90.63
77727;SHT30;68312;53.502;10.030;2023-07-24T03:48:28;17.38;90.44
77727;SHT30;68312;53.502;10.030;2023-07-24T03:51:00;17.34;90.54
77727;SHT30;68312;53.502;10.030;2023-07-24T03:53:26;17.24;90.70
77727;SHT30;68312;53.502;10.030;2023-07-24T03:55:51;17.18;91.02
77727;SHT30;68312;53.502;10.030;2023-07-24T03:58:16;17.18;91.15
77727;SHT30;68312;53.502;10.030;2023-07-24T04:00:42;17.18;91.30
77727;SHT30;68312;53.502;10.030;2023-07-24T04:03:07;17.17;91.25
77727;SHT30;68312;53.502;10.030;2023-07-24T04:05:35;17.12;91.29
77727;SHT30;68312;53.502;10.030;2023-07-24T04:08:00;17.12;91.11
77727;SHT30;68312;53.502;10.030;2023-07-24T04:10:26;17.17;91.06
77727;SHT30;68312;53.502;10.030;2023-07-24T04:12:51;17.21;90.64
77727;SHT30;68312;53.502;10.030;2023-07-24T04:15:16;17.25;90.49
77727;SHT30;68312;53.502;10.030;2023-07-24T04:17:42;17.25;90.39
77727;SHT30;68312;53.502;10.030;2023-07-24T04:20:08;17.24;90.44
77727;SHT30;68312;53.502;10.030;2023-07-24T04:22:33;17.25;90.32
77727;SHT30;68312;53.502;10.030;2023-07-24T04:24:59;17.26;90.39
77727;SHT30;68312;53.502;10.030;2023-07-24T04:27:24;17.34;90.46
77727;SHT30;68312;53.502;10.030;2023-07-24T04:29:49;17.32;90.18
77727;SHT30;68312;53.502;10.030;2023-07-24T04:32:15;17.32;90.20
77727;SHT30;68312;53.502;10.030;2023-07-24T04:34:40;17.36;90.22
77727;SHT30;68312;53.502;10.030;2023-07-24T04:37:06;17.42;90.11
77727;SHT30;68312;53.502;10.030;2023-07-24T04:39:31;17.49;89.95
77727;SHT30;68312;53.502;10.030;2023-07-24T04:41:56;17.56;89.70
77727;SHT30;68312;53.502;10.030;2023-07-24T04:44:22;17.65;89.39
77727;SHT30;68312;53.502;10.030;2023-07-24T04:46:47;17.70;89.20
77727;SHT30;68312;53.502;10.030;2023-07-24T04:49:12;17.75;88.80
77727;SHT30;68312;53.502;10.030;2023-07-24T04:51:38;17.83;88.49
77727;SHT30;68312;53.502;10.030;2023-07-24T04:54:03;17.82;88.23
77727;SHT30;68312;53.502;10.030;2023-07-24T04:56:28;17.82;88.46
77727;SHT30;68312;53.502;10.030;2023-07-24T04:58:54;17.77;88.54
77727;SHT30;68312;53.502;10.030;2023-07-24T05:01:19;17.77;88.62
77727;SHT30;68312;53.502;10.030;2023-07-24T05:03:45;17.84;88.45
77727;SHT30;68312;53.502;10.030;2023-07-24T05:06:10;17.83;88.16
77727;SHT30;68312;53.502;10.030;2023-07-24T05:08:35;17.87;88.00
77727;SHT30;68312;53.502;10.030;2023-07-24T05:11:01;17.96;87.47
77727;SHT30;68312;53.502;10.030;2023-07-24T05:13:26;18.04;87.13
77727;SHT30;68312;53.502;10.030;2023-07-24T05:15:52;18.13;86.96
77727;SHT30;68312;53.502;10.030;2023-07-24T05:18:17;18.27;86.74
77727;SHT30;68312;53.502;10.030;2023-07-24T05:20:47;18.42;86.12
77727;SHT30;68312;53.502;10.030;2023-07-24T05:23:14;18.54;85.25
77727;SHT30;68312;53.502;10.030;2023-07-24T05:25:40;18.79;83.89
77727;SHT30;68312;53.502;10.030;2023-07-24T05:28:05;18.99;83.70
77727;SHT30;68312;53.502;10.030;2023-07-24T05:30:30;19.19;83.41
77727;SHT30;68312;53.502;10.030;2023-07-24T05:32:56;19.37;82.60
77727;SHT30;68312;53.502;10.030;2023-07-24T05:35:21;19.49;82.10
77727;SHT30;68312;53.502;10.030;2023-07-24T05:37:47;19.55;81.51
77727;SHT30;68312;53.502;10.030;2023-07-24T05:40:12;19.62;81.82
77727;SHT30;68312;53.502;10.030;2023-07-24T05:42:37;19.65;81.18
77727;SHT30;68312;53.502;10.030;2023-07-24T05:45:08;19.67;80.74
77727;SHT30;68312;53.502;10.030;2023-07-24T05:47:34;19.60;80.45
77727;SHT30;68312;53.502;10.030;2023-07-24T05:49:59;19.46;81.56
77727;SHT30;68312;53.502;10.030;2023-07-24T05:52:24;19.38;82.33
77727;SHT30;68312;53.502;10.030;2023-07-24T05:54:50;19.27;82.10
77727;SHT30;68312;53.502;10.030;2023-07-24T05:57:15;19.34;82.08
77727;SHT30;68312;53.502;10.030;2023-07-24T05:59:40;19.44;81.38
77727;SHT30;68312;53.502;10.030;2023-07-24T06:02:06;19.37;81.26
77727;SHT30;68312;53.502;10.030;2023-07-24T06:04:32;19.31;81.32
77727;SHT30;68312;53.502;10.030;2023-07-24T06:06:58;19.24;81.31
77727;SHT30;68312;53.502;10.030;2023-07-24T06:09:23;19.30;81.75
77727;SHT30;68312;53.502;10.030;2023-07-24T06:11:49;19.27;81.16
77727;SHT30;68312;53.502;10.030;2023-07-24T06:14:14;19.35;80.96
77727;SHT30;68312;53.502;10.030;2023-07-24T06:16:39;19.43;80.78
77727;SHT30;68312;53.502;10.030;2023-07-24T06:19:05;19.40;80.55
77727;SHT30;68312;53.502;10.030;2023-07-24T06:21:31;19.35;80.86
77727;SHT30;68312;53.502;10.030;2023-07-24T06:23:56;19.27;81.14
77727;SHT30;68312;53.502;10.030;2023-07-24T06:26:22;19.16;81.69
77727;SHT30;68312;53.502;10.030;2023-07-24T06:28:47;19.06;82.32
77727;SHT30;68312;53.502;10.030;2023-07-24T06:31:12;19.07;81.91
77727;SHT30;68312;53.502;10.030;2023-07-24T06:33:38;19.16;81.05
77727;SHT30;68312;53.502;10.030;2023-07-24T06:36:04;19.30;81.16
77727;SHT30;68312;53.502;10.030;2023-07-24T06:38:29;19.35;81.07
77727;SHT30;68312;53.502;10.030;2023-07-24T06:40:54;19.55;80.64
77727;SHT30;68312;53.502;10.030;2023-07-24T06:43:20;19.72;79.80
77727;SHT30;68312;53.502;10.030;2023-07-24T06:45:45;19.78;80.50
77727;SHT30;68312;53.502;10.030;2023-07-24T06:48:11;19.86;79.91
77727;SHT30;68312;53.502;10.030;2023-07-24T06:50:36;19.95;79.37
77727;SHT30;68312;53.502;10.030;2023-07-24T06:53:01;19.95;79.40
77727;SHT30;68312;53.502;10.030;2023-07-24T06:55:27;19.92;80.49
77727;SHT30;68312;53.502;10.030;2023-07-24T06:57:52;19.85;80.49
77727;SHT30;68312;53.502;10.030;2023-07-24T07:00:17;19.92;81.02
77727;SHT30;68312;53.502;10.030;2023-07-24T07:02:43;20.04;80.69
77727;SHT30;68312;53.502;10.030;2023-07-24T07:05:09;20.02;78.51
77727;SHT30;68312;53.502;10.030;2023-07-24T07:07:34;19.99;78.83
77727;SHT30;68312;53.502;10.030;2023-07-24T07:09:59;19.88;79.37
77727;SHT30;68312;53.502;10.030;2023-07-24T07:12:25;19.78;80.15
77727;SHT30;68312;53.502;10.030;2023-07-24T07:14:50;19.75;80.23
77727;SHT30;68312;53.502;10.030;2023-07-24T07:17:16;19.72;80.71
77727;SHT30;68312;53.502;10.030;2023-07-24T07:19:41;19.61;80.12
77727;SHT30;68312;53.502;10.030;2023-07-24T07:22:06;19.60;80.45
77727;SHT30;68312;53.502;10.030;2023-07-24T07:24:32;19.61;80.18
77727;SHT30;68312;53.502;10.030;2023-07-24T07:26:57;19.62;80.28
77727;SHT30;68312;53.502;10.030;2023-07-24T07:29:23;19.70;80.11
77727;SHT30;68312;53.502;10.030;2023-07-24T07:31:48;19.81;79.77
77727;SHT30;68312;53.502;10.030;2023-07-24T07:34:13;19.91;79.27
77727;SHT30;68312;53.502;10.030;2023-07-24T07:36:39;20.01;79.16
77727;SHT30;68312;53.502;10.030;2023-07-24T07:39:04;20.02;78.45
77727;SHT30;68312;53.502;10.030;2023-07-24T07:41:30;20.12;78.61
77727;SHT30;68312;53.502;10.030;2023-07-24T07:43:57;20.15;78.13
77727;SHT30;68312;53.502;10.030;2023-07-24T07:46:23;20.25;78.05
77727;SHT30;68312;53.502;10.030;2023-07-24T07:48:49;20.25;76.58
77727;SHT30;68312;53.502;10.030;2023-07-24T07:51:15;20.26;77.05
77727;SHT30;68312;53.502;10.030;2023-07-24T07:53:40;20.19;77.08
77727;SHT30;68312;53.502;10.030;2023-07-24T07:56:07;20.19;77.48
77727;SHT30;68312;53.502;10.030;2023-07-24T07:58:32;20.18;77.04
77727;SHT30;68312;53.502;10.030;2023-07-24T08:00:58;20.15;77.51
77727;SHT30;68312;53.502;10.030;2023-07-24T08:03:23;20.20;76.32
77727;SHT30;68312;53.502;10.030;2023-07-24T08:05:49;20.19;75.54
77727;SHT30;68312;53.502;10.030;2023-07-24T08:08:14;20.16;75.16
77727;SHT30;68312;53.502;10.030;2023-07-24T08:10:39;20.06;75.53
77727;SHT30;68312;53.502;10.030;2023-07-24T08:13:05;20.02;75.49
77727;SHT30;68312;53.502;10.030;2023-07-24T08:15:36;20.04;75.85
77727;SHT30;68312;53.502;10.030;2023-07-24T08:18:04;20.04;76.19
77727;SHT30;68312;53.502;10.030;2023-07-24T08:20:30;20.10;76.67
77727;SHT30;68312;53.502;10.030;2023-07-24T08:22:55;20.22;75.81
77727;SHT30;68312;53.502;10.030;2023-07-24T08:25:21;20.37;76.30
77727;SHT30;68312;53.502;10.030;2023-07-24T08:27:46;20.41;75.32
77727;SHT30;68312;53.502;10.030;2023-07-24T08:30:11;20.64;75.84
77727;SHT30;68312;53.502;10.030;2023-07-24T08:32:39;20.88;74.87
77727;SHT30;68312;53.502;10.030;2023-07-24T08:35:05;20.99;73.91
77727;SHT30;68312;53.502;10.030;2023-07-24T08:37:31;21.04;72.85
77727;SHT30;68312;53.502;10.030;2023-07-24T08:39:56;21.05;73.53
77727;SHT30;68312;53.502;10.030;2023-07-24T08:42:22;21.01;73.54
77727;SHT30;68312;53.502;10.030;2023-07-24T08:44:48;20.70;74.41
77727;SHT30;68312;53.502;10.030;2023-07-24T08:47:15;20.64;74.50
77727;SHT30;68312;53.502;10.030;2023-07-24T08:49:42;20.67;74.71
77727;SHT30;68312;53.502;10.030;2023-07-24T08:52:09;20.80;73.95
77727;SHT30;68312;53.502;10.030;2023-07-24T08:54:38;20.88;73.86
77727;SHT30;68312;53.502;10.030;2023-07-24T08:57:07;21.08;73.41
77727;SHT30;68312;53.502;10.030;2023-07-24T08:59:34;21.27;73.52
77727;SHT30;68312;53.502;10.030;2023-07-24T09:02:00;21.21;73.59
77727;SHT30;68312;53.502;10.030;2023-07-24T09:04:25;21.27;74.27
77727;SHT30;68312;53.502;10.030;2023-07-24T09:06:52;21.43;73.30
77727;SHT30;68312;53.502;10.030;2023-07-24T09:09:18;21.65;71.81
77727;SHT30;68312;53.502;10.030;2023-07-24T09:11:52;21.42;73.37
77727;SHT30;68312;53.502;10.030;2023-07-24T09:14:23;21.14;74.67
77727;SHT30;68312;53.502;10.030;2023-07-24T09:16:48;20.78;75.48
77727;SHT30;68312;53.502;10.030;2023-07-24T09:19:18;20.66;75.25
77727;SHT30;68312;53.502;10.030;2023-07-24T09:21:43;20.41;75.19
77727;SHT30;68312;53.502;10.030;2023-07-24T09:24:14;20.39;75.56
77727;SHT30;68312;53.502;10.030;2023-07-24T09:26:53;20.78;75.90
77727;SHT30;68312;53.502;10.030;2023-07-24T09:29:19;21.09;72.41
77727;SHT30;68312;53.502;10.030;2023-07-24T09:31:45;21.21;72.12
77727;SHT30;68312;53.502;10.030;2023-07-24T09:34:18;21.36;72.50
77727;SHT30;68312;53.502;10.030;2023-07-24T09:36:44;21.42;72.77
77727;SHT30;68312;53.502;10.030;2023-07-24T09:39:10;21.57;72.04
77727;SHT30;68312;53.502;10.030;2023-07-24T09:41:38;21.62;72.13
77727;SHT30;68312;53.502;10.030;2023-07-24T09:44:04;21.52;71.54
77727;SHT30;68312;53.502;10.030;2023-07-24T09:46:30;21.46;71.19
77727;SHT30;68312;53.502;10.030;2023-07-24T09:48:58;21.46;71.57
77727;SHT30;68312;53.502;10.030;2023-07-24T09:51:23;21.52;71.23
77727;SHT30;68312;53.502;10.030;2023-07-24T09:54:00;21.79;72.03
77727;SHT30;68312;53.502;10.030;2023-07-24T09:56:27;22.27;68.81
77727;SHT30;68312;53.502;10.030;2023-07-24T09:58:54;22.49;68.98
77727;SHT30;68312;53.502;10.030;2023-07-24T10:01:21;22.62;67.63
77727;SHT30;68312;53.502;10.030;2023-07-24T10:03:48;22.48;65.94
77727;SHT30;68312;53.502;10.030;2023-07-24T10:06:16;22.14;67.77
77727;SHT30;68312;53.502;10.030;2023-07-24T10:08:43;22.06;69.40
77727;SHT30;68312;53.502;10.030;2023-07-24T10:11:11;21.93;68.99
77727;SHT30;68312;53.502;10.030;2023-07-24T10:13:38;21.93;71.09
77727;SHT30;68312;53.502;10.030;2023-07-24T10:16:04;21.87;70.47
77727;SHT30;68312;53.502;10.030;2023-07-24T10:18:34;21.87;70.11
77727;SHT30;68312;53.502;10.030;2023-07-24T10:21:05;21.56;68.46
77727;SHT30;68312;53.502;10.030;2023-07-24T10:23:35;21.39;69.35
77727;SHT30;68312;53.502;10.030;2023-07-24T10:26:05;21.45;68.82
77727;SHT30;68312;53.502;10.030;2023-07-24T10:28:39;21.52;69.56
77727;SHT30;68312;53.502;10.030;2023-07-24T10:31:23;21.77;69.92
77727;SHT30;68312;53.502;10.030;2023-07-24T10:33:49;21.77;69.34
77727;SHT30;68312;53.502;10.030;2023-07-24T10:36:22;21.62;70.65
77727;SHT30;68312;53.502;10.030;2023-07-24T10:38:54;21.60;69.81
77727;SHT30;68312;53.502;10.030;2023-07-24T10:41:21;21.89;67.68
77727;SHT30;68312;53.502;10.030;2023-07-24T10:43:49;22.35;67.12
77727;SHT30;68312;53.502;10.030;2023-07-24T10:46:18;22.68;66.50
77727;SHT30;68312;53.502;10.030;2023-07-24T10:48:47;23.03;65.43
77727;SHT30;68312;53.502;10.030;2023-07-24T10:51:13;23.06;64.89
77727;SHT30;68312;53.502;10.030;2023-07-24T10:53:46;23.07;64.55
77727;SHT30;68312;53.502;10.030;2023-07-24T10:56:12;22.76;65.04
77727;SHT30;68312;53.502;10.030;2023-07-24T10:58:37;22.49;65.48
77727;SHT30;68312;53.502;10.030;2023-07-24T11:01:05;22.35;64.70
77727;SHT30;68312;53.502;10.030;2023-07-24T11:03:31;22.18;65.81
77727;SHT30;68312;53.502;10.030;2023-07-24T11:05:57;22.34;65.47
77727;SHT30;68312;53.502;10.030;2023-07-24T11:08:23;22.73;65.07
77727;SHT30;68312;53.502;10.030;2023-07-24T11:10:55;23.26;64.09
77727;SHT30;68312;53.502;10.030;2023-07-24T11:13:25;23.74;63.74
77727;SHT30;68312;53.502;10.030;2023-07-24T11:15:52;24.44;58.95
77727;SHT30;68312;53.502;10.030;2023-07-24T11:18:19;24.30;60.90
77727;SHT30;68312;53.502;10.030;2023-07-24T11:20:50;23.91;61.37
77727;SHT30;68312;53.502;10.030;2023-07-24T11:23:17;23.46;63.21
77727;SHT30;68312;53.502;10.030;2023-07-24T11:25:43;22.83;63.96
77727;SHT30;68312;53.502;10.030;2023-07-24T11:28:11;22.31;65.14
77727;SHT30;68312;53.502;10.030;2023-07-24T11:30:37;21.96;66.45
77727;SHT30;68312;53.502;10.030;2023-07-24T11:33:05;21.73;67.73
77727;SHT30;68312;53.502;10.030;2023-07-24T11:35:31;21.56;68.49
77727;SHT30;68312;53.502;10.030;2023-07-24T11:37:57;21.72;67.88
77727;SHT30;68312;53.502;10.030;2023-07-24T11:40:33;21.83;68.16
77727;SHT30;68312;53.502;10.030;2023-07-24T11:42:59;22.20;66.67
77727;SHT30;68312;53.502;10.030;2023-07-24T11:45:24;22.88;64.91
77727;SHT30;68312;53.502;10.030;2023-07-24T11:47:50;23.40;64.42
77727;SHT30;68312;53.502;10.030;2023-07-24T11:50:19;23.71;61.85
77727;SHT30;68312;53.502;10.030;2023-07-24T11:52:47;23.99;62.44
77727;SHT30;68312;53.502;10.030;2023-07-24T11:55:16;24.59;61.02
77727;SHT30;68312;53.502;10.030;2023-07-24T11:57:41;25.56;57.86
77727;SHT30;68312;53.502;10.030;2023-07-24T12:00:20;26.31;54.01
77727;SHT30;68312;53.502;10.030;2023-07-24T12:02:46;25.90;54.83
77727;SHT30;68312;53.502;10.030;2023-07-24T12:05:12;25.67;56.22
77727;SHT30;68312;53.502;10.030;2023-07-24T12:07:37;25.86;55.52
77727;SHT30;68312;53.502;10.030;2023-07-24T12:10:05;25.52;58.02
77727;SHT30;68312;53.502;10.030;2023-07-24T12:12:46;25.00;57.52
77727;SHT30;68312;53.502;10.030;2023-07-24T12:15:13;24.30;59.29
77727;SHT30;68312;53.502;10.030;2023-07-24T12:17:40;24.69;60.80
77727;SHT30;68312;53.502;10.030;2023-07-24T12:20:08;24.22;59.98
77727;SHT30;68312;53.502;10.030;2023-07-24T12:22:36;23.84;61.38
77727;SHT30;68312;53.502;10.030;2023-07-24T12:25:06;24.55;58.92
77727;SHT30;68312;53.502;10.030;2023-07-24T12:27:32;24.77;59.00
77727;SHT30;68312;53.502;10.030;2023-07-24T12:29:58;25.75;56.85
77727;SHT30;68312;53.502;10.030;2023-07-24T12:32:24;26.81;56.20
77727;SHT30;68312;53.502;10.030;2023-07-24T12:34:53;27.53;52.49
77727;SHT30;68312;53.502;10.030;2023-07-24T12:37:20;27.17;51.62
77727;SHT30;68312;53.502;10.030;2023-07-24T12:39:47;26.25;53.14
77727;SHT30;68312;53.502;10.030;2023-07-24T12:42:13;25.45;54.81
77727;SHT30;68312;53.502;10.030;2023-07-24T12:44:38;24.69;57.58
77727;SHT30;68312;53.502;10.030;2023-07-24T12:47:05;24.35;57.81
77727;SHT30;68312;53.502;10.030;2023-07-24T12:49:31;24.16;59.83
77727;SHT30;68312;53.502;10.030;2023-07-24T12:51:56;23.71;60.37
77727;SHT30;68312;53.502;10.030;2023-07-24T12:54:22;23.49;61.11
77727;SHT30;68312;53.502;10.030;2023-07-24T12:56:49;23.27;61.80
77727;SHT30;68312;53.502;10.030;2023-07-24T12:59:15;23.20;62.98
77727;SHT30;68312;53.502;10.030;2023-07-24T13:01:41;23.16;63.22
77727;SHT30;68312;53.502;10.030;2023-07-24T13:04:07;23.39;62.20
77727;SHT30;68312;53.502;10.030;2023-07-24T13:06:33;24.22;61.06
77727;SHT30;68312;53.502;10.030;2023-07-24T13:08:58;25.06;58.22
77727;SHT30;68312;53.502;10.030;2023-07-24T13:11:24;25.63;57.38
77727;SHT30;68312;53.502;10.030;2023-07-24T13:13:49;26.24;53.64
77727;SHT30;68312;53.502;10.030;2023-07-24T13:16:16;25.94;54.70
77727;SHT30;68312;53.502;10.030;2023-07-24T13:18:42;26.35;54.00
77727;SHT30;68312;53.502;10.030;2023-07-24T13:21:07;26.78;53.68
77727;SHT30;68312;53.502;10.030;2023-07-24T13:23:33;26.75;52.19
77727;SHT30;68312;53.502;10.030;2023-07-24T13:25:59;26.01;52.08
77727;SHT30;68312;53.502;10.030;2023-07-24T13:28:24;26.54;52.57
77727;SHT30;68312;53.502;10.030;2023-07-24T13:30:50;26.65;52.09
77727;SHT30;68312;53.502;10.030;2023-07-24T13:33:15;27.20;51.72
77727;SHT30;68312;53.502;10.030;2023-07-24T13:35:41;27.37;49.43
77727;SHT30;68312;53.502;10.030;2023-07-24T13:38:06;26.61;52.05
77727;SHT30;68312;53.502;10.030;2023-07-24T13:40:34;26.58;53.84
77727;SHT30;68312;53.502;10.030;2023-07-24T13:42:59;26.40;51.46
77727;SHT30;68312;53.502;10.030;2023-07-24T13:45:25;25.62;53.78
77727;SHT30;68312;53.502;10.030;2023-07-24T13:47:50;25.14;53.69
77727;SHT30;68312;53.502;10.030;2023-07-24T13:50:16;24.94;55.39
77727;SHT30;68312;53.502;10.030;2023-07-24T13:52:41;24.63;56.21
77727;SHT30;68312;53.502;10.030;2023-07-24T13:55:07;24.40;57.69
77727;SHT30;68312;53.502;10.030;2023-07-24T13:57:32;24.36;58.96
77727;SHT30;68312;53.502;10.030;2023-07-24T13:59:58;24.28;59.64
77727;SHT30;68312;53.502;10.030;2023-07-24T14:02:23;24.08;60.23
77727;SHT30;68312;53.502;10.030;2023-07-24T14:04:48;24.09;60.27
77727;SHT30;68312;53.502;10.030;2023-07-24T14:07:14;24.32;63.17
77727;SHT30;68312;53.502;10.030;2023-07-24T14:09:39;24.98;60.04
77727;SHT30;68312;53.502;10.030;2023-07-24T14:12:05;26.34;56.53
77727;SHT30;68312;53.502;10.030;2023-07-24T14:14:31;27.22;57.07
77727;SHT30;68312;53.502;10.030;2023-07-24T14:16:57;27.80;51.97
77727;SHT30;68312;53.502;10.030;2023-07-24T14:19:22;27.26;53.27
77727;SHT30;68312;53.502;10.030;2023-07-24T14:21:51;26.62;53.54
77727;SHT30;68312;53.502;10.030;2023-07-24T14:24:17;26.16;53.90
77727;SHT30;68312;53.502;10.030;2023-07-24T14:26:42;26.44;54.85
77727;SHT30;68312;53.502;10.030;2023-07-24T14:29:10;27.37;52.04
77727;SHT30;68312;53.502;10.030;2023-07-24T14:31:37;27.76;51.84
77727;SHT30;68312;53.502;10.030;2023-07-24T14:34:03;27.43;53.03
77727;SHT30;68312;53.502;10.030;2023-07-24T14:36:29;26.75;54.30
77727;SHT30;68312;53.502;10.030;2023-07-24T14:39:03;25.80;56.17
77727;SHT30;68312;53.502;10.030;2023-07-24T14:41:28;25.18;57.00
77727;SHT30;68312;53.502;10.030;2023-07-24T14:43:54;24.90;57.85
77727;SHT30;68312;53.502;10.030;2023-07-24T14:46:19;24.60;58.53
77727;SHT30;68312;53.502;10.030;2023-07-24T14:48:45;24.13;58.76
77727;SHT30;68312;53.502;10.030;2023-07-24T14:51:10;24.01;57.45
77727;SHT30;68312;53.502;10.030;2023-07-24T14:53:35;23.86;59.20
77727;SHT30;68312;53.502;10.030;2023-07-24T14:56:03;23.84;59.82
77727;SHT30;68312;53.502;10.030;2023-07-24T14:58:28;23.78;59.03
77727;SHT30;68312;53.502;10.030;2023-07-24T15:00:53;23.88;60.30
77727;SHT30;68312;53.502;10.030;2023-07-24T15:03:19;23.94;59.08
77727;SHT30;68312;53.502;10.030;2023-07-24T15:05:44;23.99;60.30
77727;SHT30;68312;53.502;10.030;2023-07-24T15:08:10;23.91;59.33
77727;SHT30;68312;53.502;10.030;2023-07-24T15:10:35;23.75;60.15
77727;SHT30;68312;53.502;10.030;2023-07-24T15:13:00;23.53;61.33
77727;SHT30;68312;53.502;10.030;2023-07-24T15:15:26;23.44;61.50
77727;SHT30;68312;53.502;10.030;2023-07-24T15:17:52;23.43;60.87